sensor_id;sensor_type;location;lat;lon;timestamp;P1;durP1;ratioP1;P2;durP2;ratioP2
11514;SDS011;5814;41.936;25.556;2022-12-07T00:01:33;69.93;;;39.30;;
11514;SDS011;5814;41.936;25.556;2022-12-07T00:04:00;64.23;;;38.30;;
11514;SDS011;5814;41.936;25.556;2022-12-07T00:06:27;68.73;;;41.37;;
11514;SDS011;5814;41.936;25.556;2022-12-07T00:08:54;73.60;;;43.00;;
11514;SDS011;5814;41.936;25.556;2022-12-07T00:11:22;74.10;;;41.27;;
11514;SDS011;5814;41.936;25.556;2022-12-07T00:13:51;68.67;;;40.30;;
11514;SDS011;5814;41.936;25.556;2022-12-07T00:16:18;71.07;;;40.90;;
11514;SDS011;5814;41.936;25.556;2022-12-07T00:18:45;70.80;;;40.77;;
11514;SDS011;5814;41.936;25.556;2022-12-07T00:21:13;69.73;;;39.67;;
11514;SDS011;5814;41.936;25.556;2022-12-07T00:23:40;75.90;;;40.40;;
11514;SDS011;5814;41.936;25.556;2022-12-07T00:26:07;70.13;;;39.83;;
11514;SDS011;5814;41.936;25.556;2022-12-07T00:28:34;70.93;;;39.50;;
11514;SDS011;5814;41.936;25.556;2022-12-07T00:31:03;62.87;;;38.53;;
11514;SDS011;5814;41.936;25.556;2022-12-07T00:33:29;73.30;;;39.60;;
11514;SDS011;5814;41.936;25.556;2022-12-07T00:35:57;68.37;;;39.37;;
11514;SDS011;5814;41.936;25.556;2022-12-07T00:38:24;69.73;;;37.97;;
11514;SDS011;5814;41.936;25.556;2022-12-07T00:40:53;73.03;;;39.67;;
11514;SDS011;5814;41.936;25.556;2022-12-07T00:43:20;72.50;;;39.50;;
11514;SDS011;5814;41.936;25.556;2022-12-07T00:45:47;67.23;;;38.63;;
11514;SDS011;5814;41.936;25.556;2022-12-07T00:48:14;67.50;;;37.30;;
11514;SDS011;5814;41.936;25.556;2022-12-07T00:50:41;70.33;;;37.70;;
11514;SDS011;5814;41.936;25.556;2022-12-07T00:53:09;65.93;;;38.40;;
11514;SDS011;5814;41.936;25.556;2022-12-07T00:55:36;71.93;;;39.57;;
11514;SDS011;5814;41.936;25.556;2022-12-07T00:58:03;72.90;;;40.10;;
11514;SDS011;5814;41.936;25.556;2022-12-07T01:00:30;68.70;;;38.23;;
11514;SDS011;5814;41.936;25.556;2022-12-07T01:02:57;68.27;;;37.87;;
11514;SDS011;5814;41.936;25.556;2022-12-07T01:05:25;71.43;;;38.03;;
11514;SDS011;5814;41.936;25.556;2022-12-07T01:07:52;70.47;;;39.33;;
11514;SDS011;5814;41.936;25.556;2022-12-07T01:10:19;69.90;;;39.20;;
11514;SDS011;5814;41.936;25.556;2022-12-07T01:12:46;74.70;;;40.60;;
11514;SDS011;5814;41.936;25.556;2022-12-07T01:15:13;80.17;;;41.73;;
11514;SDS011;5814;41.936;25.556;2022-12-07T01:17:41;77.17;;;40.20;;
11514;SDS011;5814;41.936;25.556;2022-12-07T01:20:08;73.57;;;40.00;;
11514;SDS011;5814;41.936;25.556;2022-12-07T01:22:37;72.83;;;39.80;;
11514;SDS011;5814;41.936;25.556;2022-12-07T01:25:04;69.93;;;39.30;;
11514;SDS011;5814;41.936;25.556;2022-12-07T01:27:32;75.63;;;40.60;;
11514;SDS011;5814;41.936;25.556;2022-12-07T01:29:58;78.33;;;41.30;;
11514;SDS011;5814;41.936;25.556;2022-12-07T01:32:26;78.23;;;41.07;;
11514;SDS011;5814;41.936;25.556;2022-12-07T01:34:53;79.67;;;40.90;;
11514;SDS011;5814;41.936;25.556;2022-12-07T01:37:20;79.90;;;41.03;;
11514;SDS011;5814;41.936;25.556;2022-12-07T01:39:48;82.50;;;39.97;;
11514;SDS011;5814;41.936;25.556;2022-12-07T01:42:15;74.77;;;40.77;;
11514;SDS011;5814;41.936;25.556;2022-12-07T01:45:18;78.33;;;41.53;;
11514;SDS011;5814;41.936;25.556;2022-12-07T01:47:20;81.03;;;41.73;;
11514;SDS011;5814;41.936;25.556;2022-12-07T01:49:48;73.90;;;39.43;;
11514;SDS011;5814;41.936;25.556;2022-12-07T01:52:15;78.70;;;41.00;;
11514;SDS011;5814;41.936;25.556;2022-12-07T01:54:57;79.87;;;39.90;;
11514;SDS011;5814;41.936;25.556;2022-12-07T01:57:23;80.40;;;40.33;;
11514;SDS011;5814;41.936;25.556;2022-12-07T01:59:51;74.73;;;40.07;;
11514;SDS011;5814;41.936;25.556;2022-12-07T02:02:19;77.03;;;40.47;;
11514;SDS011;5814;41.936;25.556;2022-12-07T02:04:45;87.93;;;42.83;;
11514;SDS011;5814;41.936;25.556;2022-12-07T02:07:12;81.00;;;40.40;;
11514;SDS011;5814;41.936;25.556;2022-12-07T02:09:39;78.07;;;41.13;;
11514;SDS011;5814;41.936;25.556;2022-12-07T02:12:07;82.50;;;41.90;;
11514;SDS011;5814;41.936;25.556;2022-12-07T02:14:34;81.17;;;42.07;;
11514;SDS011;5814;41.936;25.556;2022-12-07T02:17:04;86.23;;;43.07;;
11514;SDS011;5814;41.936;25.556;2022-12-07T02:22:27;83.97;;;42.03;;
11514;SDS011;5814;41.936;25.556;2022-12-07T02:24:52;83.80;;;42.97;;
11514;SDS011;5814;41.936;25.556;2022-12-07T02:27:52;79.33;;;40.73;;
11514;SDS011;5814;41.936;25.556;2022-12-07T02:30:10;84.80;;;41.93;;
11514;SDS011;5814;41.936;25.556;2022-12-07T02:32:40;81.27;;;41.17;;
11514;SDS011;5814;41.936;25.556;2022-12-07T02:38:13;90.20;;;45.03;;
11514;SDS011;5814;41.936;25.556;2022-12-07T02:40:43;89.47;;;42.30;;
11514;SDS011;5814;41.936;25.556;2022-12-07T02:43:12;86.47;;;41.70;;
11514;SDS011;5814;41.936;25.556;2022-12-07T02:45:44;80.93;;;40.80;;
11514;SDS011;5814;41.936;25.556;2022-12-07T02:48:12;87.40;;;41.97;;
11514;SDS011;5814;41.936;25.556;2022-12-07T02:50:38;86.67;;;40.90;;
11514;SDS011;5814;41.936;25.556;2022-12-07T02:53:05;83.77;;;41.47;;
11514;SDS011;5814;41.936;25.556;2022-12-07T02:55:34;91.50;;;41.73;;
11514;SDS011;5814;41.936;25.556;2022-12-07T02:58:41;84.90;;;42.00;;
11514;SDS011;5814;41.936;25.556;2022-12-07T03:00:52;82.73;;;40.57;;
11514;SDS011;5814;41.936;25.556;2022-12-07T03:03:18;89.33;;;42.70;;
11514;SDS011;5814;41.936;25.556;2022-12-07T03:05:52;88.50;;;42.90;;
11514;SDS011;5814;41.936;25.556;2022-12-07T03:08:28;88.00;;;41.93;;
11514;SDS011;5814;41.936;25.556;2022-12-07T03:10:59;87.03;;;42.07;;
11514;SDS011;5814;41.936;25.556;2022-12-07T03:13:31;81.53;;;41.00;;
11514;SDS011;5814;41.936;25.556;2022-12-07T03:16:15;80.20;;;40.03;;
11514;SDS011;5814;41.936;25.556;2022-12-07T03:18:51;82.90;;;41.27;;
11514;SDS011;5814;41.936;25.556;2022-12-07T03:21:17;82.03;;;41.83;;
11514;SDS011;5814;41.936;25.556;2022-12-07T03:23:44;80.57;;;41.43;;
11514;SDS011;5814;41.936;25.556;2022-12-07T03:26:11;85.13;;;41.67;;
11514;SDS011;5814;41.936;25.556;2022-12-07T03:28:38;86.60;;;41.53;;
11514;SDS011;5814;41.936;25.556;2022-12-07T03:33:41;85.67;;;41.33;;
11514;SDS011;5814;41.936;25.556;2022-12-07T03:36:24;80.20;;;42.07;;
11514;SDS011;5814;41.936;25.556;2022-12-07T03:39:03;83.00;;;41.57;;
11514;SDS011;5814;41.936;25.556;2022-12-07T03:41:29;90.30;;;42.23;;
11514;SDS011;5814;41.936;25.556;2022-12-07T03:43:55;79.50;;;40.53;;
11514;SDS011;5814;41.936;25.556;2022-12-07T03:49:17;84.63;;;43.83;;
11514;SDS011;5814;41.936;25.556;2022-12-07T03:51:43;100.43;;;49.23;;
11514;SDS011;5814;41.936;25.556;2022-12-07T03:54:11;88.73;;;47.27;;
11514;SDS011;5814;41.936;25.556;2022-12-07T03:56:37;86.60;;;45.17;;
11514;SDS011;5814;41.936;25.556;2022-12-07T03:59:04;85.47;;;42.77;;
11514;SDS011;5814;41.936;25.556;2022-12-07T04:01:31;85.97;;;42.93;;
11514;SDS011;5814;41.936;25.556;2022-12-07T04:03:58;86.13;;;43.30;;
11514;SDS011;5814;41.936;25.556;2022-12-07T04:06:25;81.73;;;41.53;;
11514;SDS011;5814;41.936;25.556;2022-12-07T04:08:52;81.63;;;42.80;;
11514;SDS011;5814;41.936;25.556;2022-12-07T04:11:20;88.10;;;45.00;;
11514;SDS011;5814;41.936;25.556;2022-12-07T04:13:47;79.13;;;41.10;;
11514;SDS011;5814;41.936;25.556;2022-12-07T04:16:20;88.90;;;45.87;;
11514;SDS011;5814;41.936;25.556;2022-12-07T04:18:47;78.17;;;41.53;;
11514;SDS011;5814;41.936;25.556;2022-12-07T04:21:14;82.03;;;42.30;;
11514;SDS011;5814;41.936;25.556;2022-12-07T04:23:41;92.77;;;48.50;;
11514;SDS011;5814;41.936;25.556;2022-12-07T04:26:08;98.43;;;53.17;;
11514;SDS011;5814;41.936;25.556;2022-12-07T04:28:35;99.83;;;52.07;;
11514;SDS011;5814;41.936;25.556;2022-12-07T04:31:02;84.03;;;43.77;;
11514;SDS011;5814;41.936;25.556;2022-12-07T04:33:30;86.40;;;44.47;;
11514;SDS011;5814;41.936;25.556;2022-12-07T04:35:57;84.53;;;46.00;;
11514;SDS011;5814;41.936;25.556;2022-12-07T04:38:24;88.23;;;45.17;;
11514;SDS011;5814;41.936;25.556;2022-12-07T04:40:51;94.53;;;48.73;;
11514;SDS011;5814;41.936;25.556;2022-12-07T04:43:18;87.03;;;46.80;;
11514;SDS011;5814;41.936;25.556;2022-12-07T04:45:47;80.30;;;44.80;;
11514;SDS011;5814;41.936;25.556;2022-12-07T04:48:14;87.07;;;45.83;;
11514;SDS011;5814;41.936;25.556;2022-12-07T04:50:41;85.47;;;43.67;;
11514;SDS011;5814;41.936;25.556;2022-12-07T04:53:08;88.40;;;44.90;;
11514;SDS011;5814;41.936;25.556;2022-12-07T04:55:35;88.67;;;48.23;;
11514;SDS011;5814;41.936;25.556;2022-12-07T04:58:02;89.80;;;49.37;;
11514;SDS011;5814;41.936;25.556;2022-12-07T05:00:29;87.83;;;46.80;;
11514;SDS011;5814;41.936;25.556;2022-12-07T05:02:57;86.90;;;47.40;;
11514;SDS011;5814;41.936;25.556;2022-12-07T05:05:24;95.60;;;50.70;;
11514;SDS011;5814;41.936;25.556;2022-12-07T05:07:51;87.80;;;45.37;;
11514;SDS011;5814;41.936;25.556;2022-12-07T05:10:18;78.37;;;43.80;;
11514;SDS011;5814;41.936;25.556;2022-12-07T05:12:45;85.90;;;43.53;;
11514;SDS011;5814;41.936;25.556;2022-12-07T05:15:13;84.97;;;43.97;;
11514;SDS011;5814;41.936;25.556;2022-12-07T05:17:40;83.40;;;44.77;;
11514;SDS011;5814;41.936;25.556;2022-12-07T05:20:07;84.13;;;45.13;;
11514;SDS011;5814;41.936;25.556;2022-12-07T05:22:34;89.50;;;45.50;;
11514;SDS011;5814;41.936;25.556;2022-12-07T05:25:02;96.30;;;50.07;;
11514;SDS011;5814;41.936;25.556;2022-12-07T05:27:29;88.00;;;48.90;;
11514;SDS011;5814;41.936;25.556;2022-12-07T05:29:56;93.53;;;49.13;;
11514;SDS011;5814;41.936;25.556;2022-12-07T05:32:23;92.33;;;46.37;;
11514;SDS011;5814;41.936;25.556;2022-12-07T05:34:50;88.50;;;47.83;;
11514;SDS011;5814;41.936;25.556;2022-12-07T05:37:18;97.13;;;51.17;;
11514;SDS011;5814;41.936;25.556;2022-12-07T05:39:45;91.13;;;49.47;;
11514;SDS011;5814;41.936;25.556;2022-12-07T05:42:12;85.33;;;48.73;;
11514;SDS011;5814;41.936;25.556;2022-12-07T05:44:41;92.97;;;49.37;;
11514;SDS011;5814;41.936;25.556;2022-12-07T05:47:10;91.60;;;49.83;;
11514;SDS011;5814;41.936;25.556;2022-12-07T05:49:36;92.40;;;49.23;;
11514;SDS011;5814;41.936;25.556;2022-12-07T05:52:04;85.77;;;49.27;;
11514;SDS011;5814;41.936;25.556;2022-12-07T05:54:31;90.17;;;50.73;;
11514;SDS011;5814;41.936;25.556;2022-12-07T05:56:58;98.47;;;56.90;;
11514;SDS011;5814;41.936;25.556;2022-12-07T05:59:25;89.47;;;50.53;;
11514;SDS011;5814;41.936;25.556;2022-12-07T06:01:53;77.03;;;46.17;;
11514;SDS011;5814;41.936;25.556;2022-12-07T06:04:23;81.57;;;47.53;;
11514;SDS011;5814;41.936;25.556;2022-12-07T06:06:50;75.67;;;45.83;;
11514;SDS011;5814;41.936;25.556;2022-12-07T06:09:18;76.30;;;46.30;;
11514;SDS011;5814;41.936;25.556;2022-12-07T06:11:45;72.83;;;44.57;;
11514;SDS011;5814;41.936;25.556;2022-12-07T06:14:17;70.30;;;43.03;;
11514;SDS011;5814;41.936;25.556;2022-12-07T06:16:44;73.43;;;44.87;;
11514;SDS011;5814;41.936;25.556;2022-12-07T06:19:12;59.50;;;41.27;;
11514;SDS011;5814;41.936;25.556;2022-12-07T06:21:39;62.67;;;41.90;;
11514;SDS011;5814;41.936;25.556;2022-12-07T06:24:06;53.17;;;37.47;;
11514;SDS011;5814;41.936;25.556;2022-12-07T06:26:33;57.70;;;39.00;;
11514;SDS011;5814;41.936;25.556;2022-12-07T06:29:01;56.57;;;36.77;;
11514;SDS011;5814;41.936;25.556;2022-12-07T06:31:28;53.43;;;35.87;;
11514;SDS011;5814;41.936;25.556;2022-12-07T06:33:58;59.70;;;40.33;;
11514;SDS011;5814;41.936;25.556;2022-12-07T06:36:25;62.77;;;41.17;;
11514;SDS011;5814;41.936;25.556;2022-12-07T06:38:52;65.33;;;41.40;;
11514;SDS011;5814;41.936;25.556;2022-12-07T06:41:19;68.80;;;41.67;;
11514;SDS011;5814;41.936;25.556;2022-12-07T06:43:47;65.70;;;41.43;;
11514;SDS011;5814;41.936;25.556;2022-12-07T06:46:14;73.03;;;43.23;;
11514;SDS011;5814;41.936;25.556;2022-12-07T06:48:41;74.80;;;43.63;;
11514;SDS011;5814;41.936;25.556;2022-12-07T06:51:08;75.70;;;45.63;;
11514;SDS011;5814;41.936;25.556;2022-12-07T06:53:35;88.57;;;49.80;;
11514;SDS011;5814;41.936;25.556;2022-12-07T06:56:03;85.53;;;51.00;;
11514;SDS011;5814;41.936;25.556;2022-12-07T06:58:30;75.83;;;46.00;;
11514;SDS011;5814;41.936;25.556;2022-12-07T07:00:58;100.53;;;60.30;;
11514;SDS011;5814;41.936;25.556;2022-12-07T07:03:25;83.57;;;47.83;;
11514;SDS011;5814;41.936;25.556;2022-12-07T07:05:52;85.00;;;46.57;;
11514;SDS011;5814;41.936;25.556;2022-12-07T07:08:19;78.37;;;46.00;;
11514;SDS011;5814;41.936;25.556;2022-12-07T07:10:46;81.43;;;48.30;;
11514;SDS011;5814;41.936;25.556;2022-12-07T07:13:13;80.93;;;46.07;;
11514;SDS011;5814;41.936;25.556;2022-12-07T07:15:41;87.03;;;50.10;;
11514;SDS011;5814;41.936;25.556;2022-12-07T07:18:08;103.40;;;52.73;;
11514;SDS011;5814;41.936;25.556;2022-12-07T07:20:37;89.07;;;50.50;;
11514;SDS011;5814;41.936;25.556;2022-12-07T07:23:02;109.10;;;65.20;;
11514;SDS011;5814;41.936;25.556;2022-12-07T07:25:29;97.20;;;55.63;;
11514;SDS011;5814;41.936;25.556;2022-12-07T07:27:57;92.10;;;52.87;;
11514;SDS011;5814;41.936;25.556;2022-12-07T07:30:24;91.93;;;51.17;;
11514;SDS011;5814;41.936;25.556;2022-12-07T07:32:51;90.20;;;54.90;;
11514;SDS011;5814;41.936;25.556;2022-12-07T07:35:18;105.60;;;55.33;;
11514;SDS011;5814;41.936;25.556;2022-12-07T07:37:45;89.60;;;51.10;;
11514;SDS011;5814;41.936;25.556;2022-12-07T07:40:13;93.80;;;53.13;;
11514;SDS011;5814;41.936;25.556;2022-12-07T07:42:40;91.10;;;52.80;;
11514;SDS011;5814;41.936;25.556;2022-12-07T07:45:07;83.97;;;51.43;;
11514;SDS011;5814;41.936;25.556;2022-12-07T07:47:35;87.40;;;52.53;;
11514;SDS011;5814;41.936;25.556;2022-12-07T07:50:02;87.57;;;53.27;;
11514;SDS011;5814;41.936;25.556;2022-12-07T07:52:30;93.60;;;53.43;;
11514;SDS011;5814;41.936;25.556;2022-12-07T07:54:58;85.53;;;52.23;;
11514;SDS011;5814;41.936;25.556;2022-12-07T07:57:25;89.23;;;50.47;;
11514;SDS011;5814;41.936;25.556;2022-12-07T07:59:52;80.73;;;48.10;;
11514;SDS011;5814;41.936;25.556;2022-12-07T08:02:20;82.97;;;48.43;;
11514;SDS011;5814;41.936;25.556;2022-12-07T08:04:46;88.20;;;47.50;;
11514;SDS011;5814;41.936;25.556;2022-12-07T08:07:14;86.27;;;44.33;;
11514;SDS011;5814;41.936;25.556;2022-12-07T08:09:41;83.93;;;44.63;;
11514;SDS011;5814;41.936;25.556;2022-12-07T08:12:08;77.63;;;47.37;;
11514;SDS011;5814;41.936;25.556;2022-12-07T08:14:35;75.67;;;43.27;;
11514;SDS011;5814;41.936;25.556;2022-12-07T08:17:02;77.97;;;46.00;;
11514;SDS011;5814;41.936;25.556;2022-12-07T08:19:30;84.73;;;48.20;;
11514;SDS011;5814;41.936;25.556;2022-12-07T08:21:57;75.73;;;44.63;;
11514;SDS011;5814;41.936;25.556;2022-12-07T08:24:24;78.07;;;42.17;;
11514;SDS011;5814;41.936;25.556;2022-12-07T08:26:52;89.17;;;50.07;;
11514;SDS011;5814;41.936;25.556;2022-12-07T08:29:19;91.57;;;46.57;;
11514;SDS011;5814;41.936;25.556;2022-12-07T08:31:46;97.27;;;51.13;;
11514;SDS011;5814;41.936;25.556;2022-12-07T08:34:13;78.57;;;45.23;;
11514;SDS011;5814;41.936;25.556;2022-12-07T08:36:40;80.67;;;46.67;;
11514;SDS011;5814;41.936;25.556;2022-12-07T08:39:07;96.30;;;50.57;;
11514;SDS011;5814;41.936;25.556;2022-12-07T08:41:34;77.90;;;46.20;;
11514;SDS011;5814;41.936;25.556;2022-12-07T08:44:02;84.87;;;45.33;;
11514;SDS011;5814;41.936;25.556;2022-12-07T08:46:36;75.23;;;44.70;;
11514;SDS011;5814;41.936;25.556;2022-12-07T08:49:08;74.37;;;44.50;;
11514;SDS011;5814;41.936;25.556;2022-12-07T08:51:34;77.83;;;45.90;;
11514;SDS011;5814;41.936;25.556;2022-12-07T08:54:03;80.67;;;46.87;;
11514;SDS011;5814;41.936;25.556;2022-12-07T08:56:29;80.13;;;45.97;;
11514;SDS011;5814;41.936;25.556;2022-12-07T08:58:56;80.37;;;46.50;;
11514;SDS011;5814;41.936;25.556;2022-12-07T09:01:23;58.90;;;36.87;;
11514;SDS011;5814;41.936;25.556;2022-12-07T09:03:51;61.03;;;37.50;;
11514;SDS011;5814;41.936;25.556;2022-12-07T09:06:18;62.07;;;35.97;;
11514;SDS011;5814;41.936;25.556;2022-12-07T09:08:46;71.73;;;41.10;;
11514;SDS011;5814;41.936;25.556;2022-12-07T09:11:12;64.70;;;37.07;;
11514;SDS011;5814;41.936;25.556;2022-12-07T09:13:39;64.03;;;35.23;;
11514;SDS011;5814;41.936;25.556;2022-12-07T09:16:06;62.17;;;34.43;;
11514;SDS011;5814;41.936;25.556;2022-12-07T09:18:34;56.10;;;32.37;;
11514;SDS011;5814;41.936;25.556;2022-12-07T09:21:01;75.53;;;41.80;;
11514;SDS011;5814;41.936;25.556;2022-12-07T09:23:28;66.53;;;35.17;;
11514;SDS011;5814;41.936;25.556;2022-12-07T09:25:58;62.13;;;35.37;;
11514;SDS011;5814;41.936;25.556;2022-12-07T09:28:22;49.70;;;29.53;;
11514;SDS011;5814;41.936;25.556;2022-12-07T09:30:50;62.63;;;33.90;;
11514;SDS011;5814;41.936;25.556;2022-12-07T09:33:17;59.33;;;31.93;;
11514;SDS011;5814;41.936;25.556;2022-12-07T09:35:45;52.00;;;31.20;;
11514;SDS011;5814;41.936;25.556;2022-12-07T09:38:11;53.60;;;32.43;;
11514;SDS011;5814;41.936;25.556;2022-12-07T09:40:38;54.43;;;32.43;;
11514;SDS011;5814;41.936;25.556;2022-12-07T09:43:11;49.60;;;28.53;;
11514;SDS011;5814;41.936;25.556;2022-12-07T09:45:33;44.87;;;28.80;;
11514;SDS011;5814;41.936;25.556;2022-12-07T09:48:00;47.70;;;28.93;;
11514;SDS011;5814;41.936;25.556;2022-12-07T09:50:28;49.40;;;30.87;;
11514;SDS011;5814;41.936;25.556;2022-12-07T09:53:07;54.57;;;31.57;;
11514;SDS011;5814;41.936;25.556;2022-12-07T09:55:24;55.07;;;32.77;;
11514;SDS011;5814;41.936;25.556;2022-12-07T09:57:51;54.23;;;32.97;;
11514;SDS011;5814;41.936;25.556;2022-12-07T10:00:19;49.93;;;32.17;;
11514;SDS011;5814;41.936;25.556;2022-12-07T10:02:47;57.53;;;33.20;;
11514;SDS011;5814;41.936;25.556;2022-12-07T10:05:14;49.37;;;30.30;;
11514;SDS011;5814;41.936;25.556;2022-12-07T10:07:42;44.27;;;29.20;;
11514;SDS011;5814;41.936;25.556;2022-12-07T10:10:13;44.63;;;29.80;;
11514;SDS011;5814;41.936;25.556;2022-12-07T10:13:12;43.73;;;28.43;;
11514;SDS011;5814;41.936;25.556;2022-12-07T10:15:22;49.07;;;29.30;;
11514;SDS011;5814;41.936;25.556;2022-12-07T10:17:50;42.97;;;27.43;;
11514;SDS011;5814;41.936;25.556;2022-12-07T10:20:19;37.40;;;25.40;;
11514;SDS011;5814;41.936;25.556;2022-12-07T10:22:54;40.67;;;26.27;;
11514;SDS011;5814;41.936;25.556;2022-12-07T10:25:22;40.43;;;24.80;;
11514;SDS011;5814;41.936;25.556;2022-12-07T10:30:23;38.80;;;24.70;;
11514;SDS011;5814;41.936;25.556;2022-12-07T10:32:50;38.30;;;22.97;;
11514;SDS011;5814;41.936;25.556;2022-12-07T10:35:19;44.70;;;26.80;;
11514;SDS011;5814;41.936;25.556;2022-12-07T10:37:48;34.73;;;24.07;;
11514;SDS011;5814;41.936;25.556;2022-12-07T10:48:37;43.43;;;25.30;;
11514;SDS011;5814;41.936;25.556;2022-12-07T10:51:24;37.27;;;24.33;;
11514;SDS011;5814;41.936;25.556;2022-12-07T10:54:00;38.33;;;24.40;;
11514;SDS011;5814;41.936;25.556;2022-12-07T10:56:35;41.53;;;25.67;;
11514;SDS011;5814;41.936;25.556;2022-12-07T10:59:25;36.90;;;25.70;;
11514;SDS011;5814;41.936;25.556;2022-12-07T11:02:06;33.23;;;23.80;;
11514;SDS011;5814;41.936;25.556;2022-12-07T11:04:33;38.63;;;25.47;;
11514;SDS011;5814;41.936;25.556;2022-12-07T11:07:08;35.53;;;24.80;;
11514;SDS011;5814;41.936;25.556;2022-12-07T11:09:49;40.03;;;25.07;;
11514;SDS011;5814;41.936;25.556;2022-12-07T11:15:33;41.50;;;23.90;;
11514;SDS011;5814;41.936;25.556;2022-12-07T11:18:21;33.50;;;22.40;;
11514;SDS011;5814;41.936;25.556;2022-12-07T11:21:06;32.50;;;23.03;;
11514;SDS011;5814;41.936;25.556;2022-12-07T11:23:40;37.73;;;25.03;;
11514;SDS011;5814;41.936;25.556;2022-12-07T11:26:22;43.30;;;26.37;;
11514;SDS011;5814;41.936;25.556;2022-12-07T11:34:30;36.30;;;25.43;;
11514;SDS011;5814;41.936;25.556;2022-12-07T11:37:10;43.07;;;24.37;;
11514;SDS011;5814;41.936;25.556;2022-12-07T11:39:39;41.40;;;24.67;;
11514;SDS011;5814;41.936;25.556;2022-12-07T11:42:15;33.40;;;23.73;;
11514;SDS011;5814;41.936;25.556;2022-12-07T11:44:48;37.13;;;23.10;;
11514;SDS011;5814;41.936;25.556;2022-12-07T11:47:16;31.10;;;20.90;;
11514;SDS011;5814;41.936;25.556;2022-12-07T11:49:57;32.63;;;22.20;;
11514;SDS011;5814;41.936;25.556;2022-12-07T11:52:26;36.80;;;23.90;;
11514;SDS011;5814;41.936;25.556;2022-12-07T11:54:52;36.70;;;23.50;;
11514;SDS011;5814;41.936;25.556;2022-12-07T11:57:21;38.07;;;27.67;;
11514;SDS011;5814;41.936;25.556;2022-12-07T11:59:48;33.10;;;24.73;;
11514;SDS011;5814;41.936;25.556;2022-12-07T12:02:15;33.97;;;22.90;;
11514;SDS011;5814;41.936;25.556;2022-12-07T12:04:50;33.83;;;22.77;;
11514;SDS011;5814;41.936;25.556;2022-12-07T12:07:29;37.83;;;23.90;;
11514;SDS011;5814;41.936;25.556;2022-12-07T12:09:59;35.80;;;23.10;;
11514;SDS011;5814;41.936;25.556;2022-12-07T12:12:33;35.93;;;23.73;;
11514;SDS011;5814;41.936;25.556;2022-12-07T12:15:19;35.73;;;23.97;;
11514;SDS011;5814;41.936;25.556;2022-12-07T12:18:19;41.13;;;26.63;;
11514;SDS011;5814;41.936;25.556;2022-12-07T12:20:29;39.73;;;24.87;;
11514;SDS011;5814;41.936;25.556;2022-12-07T12:22:58;36.90;;;24.63;;
11514;SDS011;5814;41.936;25.556;2022-12-07T12:25:42;40.10;;;25.97;;
11514;SDS011;5814;41.936;25.556;2022-12-07T12:31:07;43.37;;;28.07;;
11514;SDS011;5814;41.936;25.556;2022-12-07T12:33:34;35.67;;;25.23;;
11514;SDS011;5814;41.936;25.556;2022-12-07T12:41:55;36.27;;;23.13;;
11514;SDS011;5814;41.936;25.556;2022-12-07T12:44:39;37.30;;;24.40;;
11514;SDS011;5814;41.936;25.556;2022-12-07T12:52:50;37.93;;;25.70;;
11514;SDS011;5814;41.936;25.556;2022-12-07T12:55:16;36.67;;;24.37;;
11514;SDS011;5814;41.936;25.556;2022-12-07T12:57:44;38.13;;;24.20;;
11514;SDS011;5814;41.936;25.556;2022-12-07T13:00:16;37.70;;;25.50;;
11514;SDS011;5814;41.936;25.556;2022-12-07T13:02:49;39.43;;;25.47;;
11514;SDS011;5814;41.936;25.556;2022-12-07T13:05:17;46.00;;;26.27;;
11514;SDS011;5814;41.936;25.556;2022-12-07T13:07:47;42.33;;;26.53;;
11514;SDS011;5814;41.936;25.556;2022-12-07T13:10:21;51.00;;;27.57;;
11514;SDS011;5814;41.936;25.556;2022-12-07T13:17:58;44.20;;;26.97;;
11514;SDS011;5814;41.936;25.556;2022-12-07T13:23:03;45.00;;;29.20;;
11514;SDS011;5814;41.936;25.556;2022-12-07T13:25:33;42.67;;;26.83;;
11514;SDS011;5814;41.936;25.556;2022-12-07T13:28:17;42.40;;;28.70;;
11514;SDS011;5814;41.936;25.556;2022-12-07T13:33:27;44.07;;;28.70;;
11514;SDS011;5814;41.936;25.556;2022-12-07T13:35:53;39.47;;;28.77;;
11514;SDS011;5814;41.936;25.556;2022-12-07T13:38:28;38.93;;;28.70;;
11514;SDS011;5814;41.936;25.556;2022-12-07T13:41:00;39.97;;;27.97;;
11514;SDS011;5814;41.936;25.556;2022-12-07T13:43:29;42.80;;;29.40;;
11514;SDS011;5814;41.936;25.556;2022-12-07T13:45:57;41.13;;;28.57;;
11514;SDS011;5814;41.936;25.556;2022-12-07T13:48:28;49.60;;;30.70;;
11514;SDS011;5814;41.936;25.556;2022-12-07T13:50:55;42.73;;;29.13;;
11514;SDS011;5814;41.936;25.556;2022-12-07T13:53:22;44.00;;;30.87;;
11514;SDS011;5814;41.936;25.556;2022-12-07T13:55:49;44.73;;;33.40;;
11514;SDS011;5814;41.936;25.556;2022-12-07T13:58:16;46.00;;;36.93;;
11514;SDS011;5814;41.936;25.556;2022-12-07T14:00:43;50.50;;;38.77;;
11514;SDS011;5814;41.936;25.556;2022-12-07T14:06:03;50.03;;;37.60;;
11514;SDS011;5814;41.936;25.556;2022-12-07T14:08:30;48.30;;;38.07;;
11514;SDS011;5814;41.936;25.556;2022-12-07T14:10:57;42.47;;;37.47;;
11514;SDS011;5814;41.936;25.556;2022-12-07T14:13:36;44.83;;;36.93;;
11514;SDS011;5814;41.936;25.556;2022-12-07T14:16:17;49.50;;;37.93;;
11514;SDS011;5814;41.936;25.556;2022-12-07T14:18:45;50.03;;;37.53;;
11514;SDS011;5814;41.936;25.556;2022-12-07T14:21:16;51.83;;;38.40;;
11514;SDS011;5814;41.936;25.556;2022-12-07T14:23:42;46.83;;;37.03;;
11514;SDS011;5814;41.936;25.556;2022-12-07T14:26:13;50.03;;;37.03;;
11514;SDS011;5814;41.936;25.556;2022-12-07T14:28:39;46.10;;;34.40;;
11514;SDS011;5814;41.936;25.556;2022-12-07T14:31:11;45.47;;;34.77;;
11514;SDS011;5814;41.936;25.556;2022-12-07T14:33:39;44.17;;;34.53;;
11514;SDS011;5814;41.936;25.556;2022-12-07T14:36:06;50.73;;;37.87;;
11514;SDS011;5814;41.936;25.556;2022-12-07T14:38:36;50.07;;;36.00;;
11514;SDS011;5814;41.936;25.556;2022-12-07T14:41:03;46.43;;;33.00;;
11514;SDS011;5814;41.936;25.556;2022-12-07T14:43:36;50.43;;;33.97;;
11514;SDS011;5814;41.936;25.556;2022-12-07T14:46:03;46.73;;;34.23;;
11514;SDS011;5814;41.936;25.556;2022-12-07T14:48:30;50.60;;;35.43;;
11514;SDS011;5814;41.936;25.556;2022-12-07T14:50:57;52.90;;;36.17;;
11514;SDS011;5814;41.936;25.556;2022-12-07T14:53:27;50.17;;;35.90;;
11514;SDS011;5814;41.936;25.556;2022-12-07T14:55:52;60.80;;;43.00;;
11514;SDS011;5814;41.936;25.556;2022-12-07T14:58:19;61.17;;;44.53;;
11514;SDS011;5814;41.936;25.556;2022-12-07T15:00:46;49.93;;;39.50;;
11514;SDS011;5814;41.936;25.556;2022-12-07T15:03:13;49.03;;;39.83;;
11514;SDS011;5814;41.936;25.556;2022-12-07T15:05:40;52.43;;;40.90;;
11514;SDS011;5814;41.936;25.556;2022-12-07T15:08:09;51.47;;;39.07;;
11514;SDS011;5814;41.936;25.556;2022-12-07T15:10:36;56.93;;;42.73;;
11514;SDS011;5814;41.936;25.556;2022-12-07T15:13:03;52.20;;;38.90;;
11514;SDS011;5814;41.936;25.556;2022-12-07T15:15:36;53.57;;;41.30;;
11514;SDS011;5814;41.936;25.556;2022-12-07T15:18:03;58.17;;;43.87;;
11514;SDS011;5814;41.936;25.556;2022-12-07T15:20:30;62.90;;;45.73;;
11514;SDS011;5814;41.936;25.556;2022-12-07T15:22:57;58.03;;;42.37;;
11514;SDS011;5814;41.936;25.556;2022-12-07T15:25:24;48.07;;;38.60;;
11514;SDS011;5814;41.936;25.556;2022-12-07T15:27:52;48.80;;;36.27;;
11514;SDS011;5814;41.936;25.556;2022-12-07T15:30:19;53.23;;;38.57;;